Time;durP1;ratioP1;P1;durP2;ratioP2;P2;SDS_P1;SDS_P2;PMS_P1;PMS_P2;Temp;Humidity;BMP_temperature;BMP_pressure;BME280_temperature;BME280_humidity;BME280_pressure;Samples;Min_cycle;Max_cycle;Signal;HPM_P1;HPM_P2
2023/01/12 00:00:49;;;;;;;;;;;;;;;;;;4922449;28;20313;-58
2023/01/12 00:03:15;;;;;;;;;;;;;;;;;;4919505;28;20405;-58
2023/01/12 00:05:41;;;;;;;;;;;;;;;;;;4921250;28;19930;-58
2023/01/12 00:08:07;;;;;;;;;;;;;;;;;;4921104;28;19927;-58
2023/01/12 00:10:32;;;;;;;;;;;;;;;;;;4921171;28;19934;-58
2023/01/12 00:12:58;;;;;;;;;;;;;;;;;;4920048;28;19922;-58
2023/01/12 00:18:09;;;;;;;;;;;;;;;;;;4918714;28;19923;-58
2023/01/12 00:20:35;;;;;;;;;;;;;;;;;;4917326;28;19926;-58
2023/01/12 00:23:01;;;;;;;;;;;;;;;;;;4920474;28;20418;-58
2023/01/12 00:25:27;;;;;;;;;;;;;;;;;;4923730;28;19923;-58
2023/01/12 00:27:52;;;;;;;;;;;;;;;;;;4921710;28;19988;-58
2023/01/12 00:30:18;;;;;;;;;;;;;;;;;;4917754;28;20899;-59
2023/01/12 00:32:44;;;;;;;;;;;;;;;;;;4922736;28;19923;-58
2023/01/12 00:35:10;;;;;;;;;;;;;;;;;;4923263;28;19977;-58
2023/01/12 00:37:36;;;;;;;;;;;;;;;;;;4922144;28;19927;-58
2023/01/12 00:40:02;;;;;;;;;;;;;;;;;;4921565;28;19923;-58
2023/01/12 00:45:22;;;;;;;;;;;;;;;;;;4922774;28;20012;-58
2023/01/12 00:47:48;;;;;;;;;;;;;;;;;;4924352;28;20729;-58
2023/01/12 00:50:14;;;;;;;;;;;;;;;;;;4924492;28;19929;-58
2023/01/12 00:52:40;;;;;;;;;;;;;;;;;;4925153;28;19924;-58
2023/01/12 00:55:06;;;;;;;;;;;;;;;;;;4924790;28;20022;-59
2023/01/12 00:57:32;;;;;;;;;;;;;;;;;;4926165;28;19927;-58
2023/01/12 00:59:58;;;;;;;;;;;;;;;;;;4923277;28;19923;-59
2023/01/12 01:02:24;;;;;;;;;;;;;;;;;;4923928;28;20498;-58
2023/01/12 01:04:50;;;;;;;;;;;;;;;;;;4922662;28;19923;-58
2023/01/12 01:07:17;;;;;;;;;;;;;;;;;;4921626;28;19927;-58
2023/01/12 01:09:43;;;;;;;;;;;;;;;;;;4922085;28;19923;-59
2023/01/12 01:12:09;;;;;;;;;;;;;;;;;;4924006;28;19966;-59
2023/01/12 01:14:35;;;;;;;;;;;;;;;;;;4922801;28;21173;-58
2023/01/12 01:17:00;;;;;;;;;;;;;;;;;;4923686;28;20005;-59
2023/01/12 01:19:26;;;;;;;;;;;;;;;;;;4921673;28;20056;-58
2023/01/12 01:21:52;;;;;;;;;;;;;;;;;;4924749;28;20136;-58
2023/01/12 01:24:18;;;;;;;;;;;;;;;;;;4924002;28;20364;-58
2023/01/12 01:26:44;;;;;;;;;;;;;;;;;;4925027;28;20408;-58
2023/01/12 01:29:10;;;;;;;;;;;;;;;;;;4924014;28;19923;-58
2023/01/12 01:31:36;;;;;;;;;;;;;;;;;;4926838;28;19923;-58
2023/01/12 01:34:02;;;;;;;;;;;;;;;;;;4922077;28;20395;-58
2023/01/12 01:36:28;;;;;;;;;;;;;;;;;;4924796;28;19927;-58
2023/01/12 01:38:54;;;;;;;;;;;;;;;;;;4923685;28;20650;-58
2023/01/12 01:41:20;;;;;;;;;;;;;;;;;;4925286;28;20333;-58
2023/01/12 01:43:46;;;;;;;;;;;;;;;;;;4924242;28;19923;-58
2023/01/12 01:46:12;;;;;;;;;;;;;;;;;;4922017;28;20538;-58
2023/01/12 01:48:38;;;;;;;;;;;;;;;;;;4918244;28;20530;-58
2023/01/12 01:51:04;;;;;;;;;;;;;;;;;;4920174;28;20428;-58
2023/01/12 01:53:30;;;;;;;;;;;;;;;;;;4919001;28;19923;-59
2023/01/12 01:55:56;;;;;;;;;;;;;;;;;;4922961;28;20019;-58
2023/01/12 01:58:21;;;;;;;;;;;;;;;;;;4922475;28;20009;-58
2023/01/12 02:00:47;;;;;;;;;;;;;;;;;;4923365;28;19977;-58
2023/01/12 02:03:13;;;;;;;;;;;;;;;;;;4921283;28;19930;-59
2023/01/12 02:05:39;;;;;;;;;;;;;;;;;;4925365;28;19977;-59
2023/01/12 02:08:05;;;;;;;;;;;;;;;;;;4924556;28;19976;-58
2023/01/12 02:10:31;;;;;;;;;;;;;;;;;;4925586;28;19931;-58
2023/01/12 02:18:26;;;;;;;;;;;;;;;;;;4923533;28;20025;-58
2023/01/12 02:20:52;;;;;;;;;;;;;;;;;;4925649;28;19984;-58
2023/01/12 02:23:18;;;;;;;;;;;;;;;;;;4924933;28;19977;-58
2023/01/12 02:25:44;;;;;;;;;;;;;;;;;;4925638;28;19927;-58
2023/01/12 02:28:10;;;;;;;;;;;;;;;;;;4924645;28;20465;-59
2023/01/12 02:30:36;;;;;;;;;;;;;;;;;;4925718;28;19919;-58
2023/01/12 02:33:02;;;;;;;;;;;;;;;;;;4925015;28;19923;-58
2023/01/12 02:35:28;;;;;;;;;;;;;;;;;;4920615;28;20468;-59
2023/01/12 02:37:54;;;;;;;;;;;;;;;;;;4921859;28;19923;-58
2023/01/12 02:40:20;;;;;;;;;;;;;;;;;;4921555;28;20530;-58
2023/01/12 02:42:49;;;;;;;;;;;;;;;;;;4921681;28;21023;-58
2023/01/12 02:45:15;;;;;;;;;;;;;;;;;;4919073;28;19933;-58
2023/01/12 02:47:41;;;;;;;;;;;;;;;;;;4920605;28;20989;-59
2023/01/12 02:50:07;;;;;;;;;;;;;;;;;;4918484;28;19976;-58
2023/01/12 02:52:33;;;;;;;;;;;;;;;;;;4922439;28;20097;-58
2023/01/12 02:54:58;;;;;;;;;;;;;;;;;;4920219;28;20310;-58
2023/01/12 02:57:24;;;;;;;;;;;;;;;;;;4922950;28;20283;-59
2023/01/12 02:59:50;;;;;;;;;;;;;;;;;;4919710;28;19929;-59
2023/01/12 03:02:16;;;;;;;;;;;;;;;;;;4918523;28;19922;-58
2023/01/12 03:04:42;;;;;;;;;;;;;;;;;;4919512;28;20460;-58
2023/01/12 03:07:08;;;;;;;;;;;;;;;;;;4919597;28;19927;-59
2023/01/12 03:09:34;;;;;;;;;;;;;;;;;;4920281;28;19946;-59
2023/01/12 03:12:00;;;;;;;;;;;;;;;;;;4919068;28;20353;-58
2023/01/12 03:14:26;;;;;;;;;;;;;;;;;;4919170;28;19927;-58
2023/01/12 03:16:52;;;;;;;;;;;;;;;;;;4920032;28;19923;-58
2023/01/12 03:19:18;;;;;;;;;;;;;;;;;;4921478;28;19922;-59
2023/01/12 03:21:44;;;;;;;;;;;;;;;;;;4920044;28;19930;-58
2023/01/12 03:24:09;;;;;;;;;;;;;;;;;;4918290;28;20822;-58
2023/01/12 03:26:35;;;;;;;;;;;;;;;;;;4917614;28;19972;-59
2023/01/12 03:29:01;;;;;;;;;;;;;;;;;;4920120;28;19923;-58
2023/01/12 03:31:27;;;;;;;;;;;;;;;;;;4920863;28;19973;-59
2023/01/12 03:33:53;;;;;;;;;;;;;;;;;;4919689;28;20677;-58
2023/01/12 03:36:19;;;;;;;;;;;;;;;;;;4920895;28;20431;-59
2023/01/12 03:38:45;;;;;;;;;;;;;;;;;;4914956;28;19985;-58
2023/01/12 03:41:11;;;;;;;;;;;;;;;;;;4923535;28;19927;-59
2023/01/12 03:43:37;;;;;;;;;;;;;;;;;;4920454;28;19930;-60
2023/01/12 03:46:03;;;;;;;;;;;;;;;;;;4921166;28;20502;-59
2023/01/12 03:48:29;;;;;;;;;;;;;;;;;;4921770;28;19931;-59
2023/01/12 03:50:55;;;;;;;;;;;;;;;;;;4923633;28;20799;-60
2023/01/12 03:53:21;;;;;;;;;;;;;;;;;;4920408;28;20424;-60
2023/01/12 03:55:47;;;;;;;;;;;;;;;;;;4922716;28;19923;-60
2023/01/12 03:58:13;;;;;;;;;;;;;;;;;;4913674;28;19923;-60
2023/01/12 04:00:39;;;;;;;;;;;;;;;;;;4920214;28;20061;-59
2023/01/12 04:03:05;;;;;;;;;;;;;;;;;;4921787;28;19933;-59
2023/01/12 04:05:31;;;;;;;;;;;;;;;;;;4922022;28;19983;-59
2023/01/12 04:07:57;;;;;;;;;;;;;;;;;;4922304;28;20724;-59
2023/01/12 04:10:23;;;;;;;;;;;;;;;;;;4922706;28;20385;-60
2023/01/12 04:12:48;;;;;;;;;;;;;;;;;;4923445;28;19931;-59
2023/01/12 04:15:14;;;;;;;;;;;;;;;;;;4920295;28;19923;-59
2023/01/12 04:17:40;;;;;;;;;;;;;;;;;;4921926;28;19923;-60
2023/01/12 04:20:08;;;;;;;;;;;;;;;;;;4920704;28;19923;-60
2023/01/12 04:22:43;;;;;;;;;;;;;;;;;;4921560;28;19973;-59
2023/01/12 04:25:09;;;;;;;;;;;;;;;;;;4922077;28;19923;-60
2023/01/12 04:27:35;;;;;;;;;;;;;;;;;;4923947;28;20040;-59
2023/01/12 04:30:00;;;;;;;;;;;;;;;;;;4922683;28;19962;-60
2023/01/12 04:32:26;;;;;;;;;;;;;;;;;;4923625;28;20016;-60
2023/01/12 04:34:52;;;;;;;;;;;;;;;;;;4923248;28;20305;-59
2023/01/12 04:37:20;;;;;;;;;;;;;;;;;;4923416;28;20345;-59
2023/01/12 04:39:46;;;;;;;;;;;;;;;;;;4920394;28;20021;-60
2023/01/12 04:44:56;;;;;;;;;;;;;;;;;;4920847;28;21408;-60
2023/01/12 04:47:22;;;;;;;;;;;;;;;;;;4923623;28;19923;-60
2023/01/12 04:49:48;;;;;;;;;;;;;;;;;;4917397;28;20239;-60
2023/01/12 04:52:14;;;;;;;;;;;;;;;;;;4921529;28;19927;-59
2023/01/12 04:54:40;;;;;;;;;;;;;;;;;;4921711;28;19923;-59
2023/01/12 04:57:06;;;;;;;;;;;;;;;;;;4919602;28;19931;-59
2023/01/12 04:59:32;;;;;;;;;;;;;;;;;;4919463;28;19922;-60
2023/01/12 05:01:58;;;;;;;;;;;;;;;;;;4917791;28;19927;-59
2023/01/12 05:04:25;;;;;;;;;;;;;;;;;;4920331;28;19930;-59
2023/01/12 05:06:50;;;;;;;;;;;;;;;;;;4919453;28;19965;-59
2023/01/12 05:12:01;;;;;;;;;;;;;;;;;;4922768;28;21274;-59
2023/01/12 05:14:28;;;;;;;;;;;;;;;;;;4922491;28;19931;-58
2023/01/12 05:16:54;;;;;;;;;;;;;;;;;;4922662;28;19927;-59
2023/01/12 05:19:19;;;;;;;;;;;;;;;;;;4917701;28;19923;-60
2023/01/12 05:21:45;;;;;;;;;;;;;;;;;;4923608;28;19927;-60
2023/01/12 05:24:11;;;;;;;;;;;;;;;;;;4922500;28;20970;-59
2023/01/12 05:26:37;;;;;;;;;;;;;;;;;;4923657;28;19930;-59
2023/01/12 05:29:03;;;;;;;;;;;;;;;;;;4925414;28;20004;-59
2023/01/12 05:31:29;;;;;;;;;;;;;;;;;;4925219;28;20654;-59
2023/01/12 05:33:55;;;;;;;;;;;;;;;;;;4924665;28;19928;-59
2023/01/12 05:36:21;;;;;;;;;;;;;;;;;;4924399;28;19923;-60
2023/01/12 05:38:47;;;;;;;;;;;;;;;;;;4924561;28;19966;-60
2023/01/12 05:41:13;;;;;;;;;;;;;;;;;;4923383;28;19926;-59
2023/01/12 05:43:53;;;;;;;;;;;;;;;;;;4921326;28;20676;-59
2023/01/12 05:46:19;;;;;;;;;;;;;;;;;;4923809;28;19922;-60
2023/01/12 05:48:45;;;;;;;;;;;;;;;;;;4923336;28;20429;-59
2023/01/12 05:51:11;;;;;;;;;;;;;;;;;;4922297;28;20488;-59
2023/01/12 05:53:37;;;;;;;;;;;;;;;;;;4922650;28;19930;-59
2023/01/12 05:56:03;;;;;;;;;;;;;;;;;;4923392;28;20049;-59
2023/01/12 05:58:29;;;;;;;;;;;;;;;;;;4925218;28;20018;-59
2023/01/12 06:00:55;;;;;;;;;;;;;;;;;;4923779;28;20313;-59
2023/01/12 06:03:21;;;;;;;;;;;;;;;;;;4923232;28;19922;-59
2023/01/12 06:05:46;;;;;;;;;;;;;;;;;;4919495;28;20254;-60
2023/01/12 06:08:12;;;;;;;;;;;;;;;;;;4920148;28;19970;-60
2023/01/12 06:10:39;;;;;;;;;;;;;;;;;;4921448;28;19927;-63
2023/01/12 06:15:50;;;;;;;;;;;;;;;;;;4923974;28;19974;-59
2023/01/12 06:18:17;;;;;;;;;;;;;;;;;;4922164;28;19927;-60
2023/01/12 06:20:43;;;;;;;;;;;;;;;;;;4923632;28;20028;-60
2023/01/12 06:23:09;;;;;;;;;;;;;;;;;;4924506;28;19927;-60
2023/01/12 06:25:35;;;;;;;;;;;;;;;;;;4924577;28;19930;-59
2023/01/12 06:28:01;;;;;;;;;;;;;;;;;;4926373;28;20018;-60
2023/01/12 06:30:27;;;;;;;;;;;;;;;;;;4924982;28;19953;-59
2023/01/12 06:32:53;;;;;;;;;;;;;;;;;;4927300;28;19923;-60
2023/01/12 06:35:19;;;;;;;;;;;;;;;;;;4922341;28;20116;-59
2023/01/12 06:37:44;;;;;;;;;;;;;;;;;;4923662;28;20333;-59
2023/01/12 06:40:10;;;;;;;;;;;;;;;;;;4923597;28;19933;-59
2023/01/12 06:42:40;;;;;;;;;;;;;;;;;;4926821;28;20018;-60
2023/01/12 06:45:06;;;;;;;;;;;;;;;;;;4926347;28;19966;-59
2023/01/12 06:47:32;;;;;;;;;;;;;;;;;;4922899;28;19929;-59
2023/01/12 06:49:58;;;;;;;;;;;;;;;;;;4923507;28;20438;-60
2023/01/12 06:52:24;;;;;;;;;;;;;;;;;;4925301;28;19923;-59
2023/01/12 06:54:50;;;;;;;;;;;;;;;;;;4926101;28;19927;-59
2023/01/12 06:57:16;;;;;;;;;;;;;;;;;;4924771;28;20006;-59
2023/01/12 06:59:42;;;;;;;;;;;;;;;;;;4925285;28;19934;-59
2023/01/12 07:02:08;;;;;;;;;;;;;;;;;;4925688;28;20085;-59
2023/01/12 07:04:34;;;;;;;;;;;;;;;;;;4925887;28;20005;-59
2023/01/12 07:07:00;;;;;;;;;;;;;;;;;;4927291;28;21029;-59
2023/01/12 07:09:25;;;;;;;;;;;;;;;;;;4921131;28;20791;-59
2023/01/12 07:11:51;;;;;;;;;;;;;;;;;;4926728;28;19927;-59
2023/01/12 07:14:17;;;;;;;;;;;;;;;;;;4925602;28;19930;-59
2023/01/12 07:16:43;;;;;;;;;;;;;;;;;;4925036;28;19922;-59
2023/01/12 07:19:09;;;;;;;;;;;;;;;;;;4925381;28;20581;-59
2023/01/12 07:21:35;;;;;;;;;;;;;;;;;;4924542;28;20412;-59
2023/01/12 07:24:01;;;;;;;;;;;;;;;;;;4925216;28;19927;-58
2023/01/12 07:26:27;;;;;;;;;;;;;;;;;;4923241;28;19923;-57
2023/01/12 07:28:53;;;;;;;;;;;;;;;;;;4925825;28;19927;-58
2023/01/12 07:31:19;;;;;;;;;;;;;;;;;;4926248;28;19922;-58
2023/01/12 07:33:45;;;;;;;;;;;;;;;;;;4932984;28;20860;-58
2023/01/12 07:36:11;;;;;;;;;;;;;;;;;;4925103;28;19930;-58
2023/01/12 07:38:37;;;;;;;;;;;;;;;;;;4925342;28;20416;-58
2023/01/12 07:41:03;;;;;;;;;;;;;;;;;;4925622;28;19927;-58
2023/01/12 07:43:29;;;;;;;;;;;;;;;;;;4925532;28;19923;-58
2023/01/12 07:45:55;;;;;;;;;;;;;;;;;;4925748;28;19929;-57
2023/01/12 07:48:21;;;;;;;;;;;;;;;;;;4925098;28;20037;-58
2023/01/12 07:50:47;;;;;;;;;;;;;;;;;;4924401;28;19970;-57
2023/01/12 07:53:13;;;;;;;;;;;;;;;;;;4925866;28;20317;-58
2023/01/12 07:55:42;;;;;;;;;;;;;;;;;;4924734;28;20321;-58
2023/01/12 07:58:08;;;;;;;;;;;;;;;;;;4925159;28;19936;-59
2023/01/12 08:00:34;;;;;;;;;;;;;;;;;;4922814;28;20045;-59
2023/01/12 08:03:00;;;;;;;;;;;;;;;;;;4925707;28;20505;-59
2023/01/12 08:05:26;;;;;;;;;;;;;;;;;;4923768;28;19923;-59
2023/01/12 08:07:52;;;;;;;;;;;;;;;;;;4924868;28;19934;-59
2023/01/12 08:10:18;;;;;;;;;;;;;;;;;;4925500;28;20364;-59
2023/01/12 08:12:44;;;;;;;;;;;;;;;;;;4924559;28;20503;-59
2023/01/12 08:15:09;;;;;;;;;;;;;;;;;;4925849;28;20451;-60
2023/01/12 08:17:35;;;;;;;;;;;;;;;;;;4925273;28;19927;-59
2023/01/12 08:20:01;;;;;;;;;;;;;;;;;;4925793;28;20309;-60
2023/01/12 08:22:27;;;;;;;;;;;;;;;;;;4922836;28;19927;-60
2023/01/12 08:24:53;;;;;;;;;;;;;;;;;;4927369;28;20653;-59
2023/01/12 08:27:19;;;;;;;;;;;;;;;;;;4922394;28;19927;-59
2023/01/12 08:29:45;;;;;;;;;;;;;;;;;;4925914;28;20646;-59
2023/01/12 08:32:12;;;;;;;;;;;;;;;;;;4924409;28;20436;-59
2023/01/12 08:34:37;;;;;;;;;;;;;;;;;;4926688;28;19968;-59
2023/01/12 08:37:03;;;;;;;;;;;;;;;;;;4924355;28;20479;-60
2023/01/12 08:39:30;;;;;;;;;;;;;;;;;;4925391;28;19981;-60
2023/01/12 08:41:55;;;;;;;;;;;;;;;;;;4925732;28;20372;-60
2023/01/12 08:44:22;;;;;;;;;;;;;;;;;;4925108;28;19930;-60
2023/01/12 08:46:48;;;;;;;;;;;;;;;;;;4924365;28;19927;-60
2023/01/12 08:49:14;;;;;;;;;;;;;;;;;;4924370;28;19961;-60
2023/01/12 08:51:39;;;;;;;;;;;;;;;;;;4925820;28;22111;-60
2023/01/12 08:54:05;;;;;;;;;;;;;;;;;;4924345;28;19923;-60
2023/01/12 08:56:31;;;;;;;;;;;;;;;;;;4924773;28;19927;-60
2023/01/12 08:58:57;;;;;;;;;;;;;;;;;;4922836;28;20349;-60
2023/01/12 09:01:23;;;;;;;;;;;;;;;;;;4925515;28;20298;-60
2023/01/12 09:03:49;;;;;;;;;;;;;;;;;;4928076;28;19923;-60
2023/01/12 09:06:15;;;;;;;;;;;;;;;;;;4927147;28;20062;-60
2023/01/12 09:08:41;;;;;;;;;;;;;;;;;;4928266;28;19930;-60
2023/01/12 09:11:07;;;;;;;;;;;;;;;;;;4927394;28;20686;-60
2023/01/12 09:13:33;;;;;;;;;;;;;;;;;;4927924;28;20528;-60
2023/01/12 09:15:59;;;;;;;;;;;;;;;;;;4927592;28;20026;-60
2023/01/12 09:18:25;;;;;;;;;;;;;;;;;;4923613;28;21848;-60
2023/01/12 09:20:52;;;;;;;;;;;;;;;;;;4927228;28;19966;-60
2023/01/12 09:23:18;;;;;;;;;;;;;;;;;;4927096;28;20018;-60
2023/01/12 09:25:44;;;;;;;;;;;;;;;;;;4928561;28;19961;-60
2023/01/12 09:28:10;;;;;;;;;;;;;;;;;;4927110;28;19922;-60
2023/01/12 09:30:36;;;;;;;;;;;;;;;;;;4928159;28;19930;-60
2023/01/12 09:33:01;;;;;;;;;;;;;;;;;;4924539;28;19923;-60
2023/01/12 09:35:27;;;;;;;;;;;;;;;;;;4927327;28;19927;-60
2023/01/12 09:37:53;;;;;;;;;;;;;;;;;;4927534;28;20462;-60
2023/01/12 09:40:19;;;;;;;;;;;;;;;;;;4924428;28;19923;-60
2023/01/12 09:48:17;;;;;;;;;;;;;;;;;;4928818;28;20017;-60
2023/01/12 09:50:43;;;;;;;;;;;;;;;;;;4927450;28;19927;-60
2023/01/12 09:53:09;;;;;;;;;;;;;;;;;;4927827;28;20419;-59
2023/01/12 09:55:35;;;;;;;;;;;;;;;;;;4927074;28;19927;-60
2023/01/12 09:58:01;;;;;;;;;;;;;;;;;;4927847;28;19923;-60
2023/01/12 10:00:27;;;;;;;;;;;;;;;;;;4926348;28;20211;-60
2023/01/12 10:02:53;;;;;;;;;;;;;;;;;;4927201;28;19923;-60
2023/01/12 10:05:18;;;;;;;;;;;;;;;;;;4927513;28;19927;-60
2023/01/12 10:07:44;;;;;;;;;;;;;;;;;;4927493;28;19930;-60
2023/01/12 10:10:10;;;;;;;;;;;;;;;;;;4927303;28;21071;-60
2023/01/12 10:12:40;;;;;;;;;;;;;;;;;;4926266;28;19927;-60
2023/01/12 10:15:06;;;;;;;;;;;;;;;;;;4928282;28;19927;-60
2023/01/12 10:17:32;;;;;;;;;;;;;;;;;;4927173;28;20298;-60
2023/01/12 10:19:58;;;;;;;;;;;;;;;;;;4928229;28;20430;-60
2023/01/12 10:22:36;;;;;;;;;;;;;;;;;;4926807;28;19934;-60
2023/01/12 10:25:02;;;;;;;;;;;;;;;;;;4928043;28;19970;-60
2023/01/12 10:27:28;;;;;;;;;;;;;;;;;;4924526;28;20484;-60
2023/01/12 10:29:54;;;;;;;;;;;;;;;;;;4926871;28;19923;-60
2023/01/12 10:32:20;;;;;;;;;;;;;;;;;;4926302;28;20306;-60
2023/01/12 10:34:46;;;;;;;;;;;;;;;;;;4925328;28;19966;-60
2023/01/12 10:37:12;;;;;;;;;;;;;;;;;;4925327;28;20487;-60
2023/01/12 10:39:38;;;;;;;;;;;;;;;;;;4926766;28;19973;-60
2023/01/12 10:42:04;;;;;;;;;;;;;;;;;;4925962;28;20539;-60
2023/01/12 10:44:29;;;;;;;;;;;;;;;;;;4933282;28;19934;-60
2023/01/12 10:46:55;;;;;;;;;;;;;;;;;;4926755;28;19927;-60
2023/01/12 10:49:21;;;;;;;;;;;;;;;;;;4926677;28;19923;-60
2023/01/12 10:51:47;;;;;;;;;;;;;;;;;;4926655;28;19923;-60
2023/01/12 10:54:16;;;;;;;;;;;;;;;;;;4925577;28;19966;-60
2023/01/12 10:56:42;;;;;;;;;;;;;;;;;;4927494;28;19923;-60
2023/01/12 10:59:08;;;;;;;;;;;;;;;;;;4925743;28;20400;-60
2023/01/12 11:01:34;;;;;;;;;;;;;;;;;;4923726;28;19945;-60
2023/01/12 11:03:59;;;;;;;;;;;;;;;;;;4926899;28;19926;-60
2023/01/12 11:06:26;;;;;;;;;;;;;;;;;;4923420;28;19946;-60
2023/01/12 11:08:52;;;;;;;;;;;;;;;;;;4924700;28;19923;-60
2023/01/12 11:11:18;;;;;;;;;;;;;;;;;;4924256;28;19977;-60
2023/01/12 11:13:44;;;;;;;;;;;;;;;;;;4926745;28;19961;-60
2023/01/12 11:16:10;;;;;;;;;;;;;;;;;;4924706;28;19923;-60
2023/01/12 11:18:36;;;;;;;;;;;;;;;;;;4924811;28;19922;-60
2023/01/12 11:21:02;;;;;;;;;;;;;;;;;;4925368;28;19923;-60
2023/01/12 11:23:28;;;;;;;;;;;;;;;;;;4922257;28;20352;-60
2023/01/12 11:25:54;;;;;;;;;;;;;;;;;;4924889;28;20026;-60
2023/01/12 11:28:20;;;;;;;;;;;;;;;;;;4925171;28;19930;-61
2023/01/12 11:30:46;;;;;;;;;;;;;;;;;;4926062;28;19923;-60
2023/01/12 11:33:12;;;;;;;;;;;;;;;;;;4926016;28;19926;-60
2023/01/12 11:35:38;;;;;;;;;;;;;;;;;;4925163;28;19931;-60
2023/01/12 11:38:04;;;;;;;;;;;;;;;;;;4925744;28;20666;-60
2023/01/12 11:40:29;;;;;;;;;;;;;;;;;;4924699;28;19946;-60
2023/01/12 11:45:40;;;;;;;;;;;;;;;;;;4925656;28;19918;-60
2023/01/12 11:48:06;;;;;;;;;;;;;;;;;;4928285;28;20411;-60
2023/01/12 11:50:32;;;;;;;;;;;;;;;;;;4926167;28;19929;-60
2023/01/12 11:52:58;;;;;;;;;;;;;;;;;;4926002;28;20351;-60
2023/01/12 11:55:24;;;;;;;;;;;;;;;;;;4926450;28;20627;-60
2023/01/12 11:57:50;;;;;;;;;;;;;;;;;;4927206;28;19922;-60
2023/01/12 12:00:16;;;;;;;;;;;;;;;;;;4925828;28;20834;-60
2023/01/12 12:02:42;;;;;;;;;;;;;;;;;;4925952;28;20017;-60
2023/01/12 12:05:08;;;;;;;;;;;;;;;;;;4927413;28;19923;-60
2023/01/12 12:07:34;;;;;;;;;;;;;;;;;;4925586;28;19922;-60
2023/01/12 12:10:00;;;;;;;;;;;;;;;;;;4924599;28;19923;-60
2023/01/12 12:12:26;;;;;;;;;;;;;;;;;;4924959;28;19927;-60
2023/01/12 12:14:53;;;;;;;;;;;;;;;;;;4925388;28;19955;-60
2023/01/12 12:17:19;;;;;;;;;;;;;;;;;;4925301;28;20649;-60
2023/01/12 12:19:45;;;;;;;;;;;;;;;;;;4925539;28;19923;-60
2023/01/12 12:22:11;;;;;;;;;;;;;;;;;;4924716;28;19931;-60
2023/01/12 12:24:37;;;;;;;;;;;;;;;;;;4924726;28;19927;-61
2023/01/12 12:27:03;;;;;;;;;;;;;;;;;;4925296;28;19974;-60
2023/01/12 12:29:29;;;;;;;;;;;;;;;;;;4924388;28;19930;-60
2023/01/12 12:31:55;;;;;;;;;;;;;;;;;;4924875;28;20018;-60
2023/01/12 12:34:21;;;;;;;;;;;;;;;;;;4924978;28;19923;-60
2023/01/12 12:36:47;;;;;;;;;;;;;;;;;;4924200;28;19923;-60
2023/01/12 12:39:13;;;;;;;;;;;;;;;;;;4924687;28;19923;-60
2023/01/12 12:47:28;;;;;;;;;;;;;;;;;;4883075;28;20475;-60
2023/01/12 12:49:54;;;;;;;;;;;;;;;;;;4884065;28;20018;-60
2023/01/12 12:52:20;;;;;;;;;;;;;;;;;;4900557;28;19974;-60
2023/01/12 12:54:46;;;;;;;;;;;;;;;;;;4922991;28;19981;-59
2023/01/12 12:57:12;;;;;;;;;;;;;;;;;;4923090;28;19931;-59
2023/01/12 12:59:39;;;;;;;;;;;;;;;;;;4923791;28;19922;-59
2023/01/12 13:02:05;;;;;;;;;;;;;;;;;;4924588;28;20853;-59
2023/01/12 13:04:31;;;;;;;;;;;;;;;;;;4922705;28;20025;-59
2023/01/12 13:06:57;;;;;;;;;;;;;;;;;;4924893;28;20132;-59
2023/01/12 13:09:24;;;;;;;;;;;;;;;;;;4924020;28;20321;-59
2023/01/12 13:11:52;;;;;;;;;;;;;;;;;;4924762;28;19927;-59
2023/01/12 13:14:18;;;;;;;;;;;;;;;;;;4923983;28;20531;-59
2023/01/12 13:16:44;;;;;;;;;;;;;;;;;;4923745;28;20009;-59
2023/01/12 13:19:10;;;;;;;;;;;;;;;;;;4924046;28;20451;-59
2023/01/12 13:21:36;;;;;;;;;;;;;;;;;;4924568;28;20171;-59
2023/01/12 13:24:02;;;;;;;;;;;;;;;;;;4924799;28;19931;-59
2023/01/12 13:26:28;;;;;;;;;;;;;;;;;;4923477;28;20417;-59
2023/01/12 13:28:54;;;;;;;;;;;;;;;;;;4924283;28;19974;-59
2023/01/12 13:31:20;;;;;;;;;;;;;;;;;;4924902;28;19931;-59
2023/01/12 13:33:46;;;;;;;;;;;;;;;;;;4922299;28;19978;-59
2023/01/12 13:36:12;;;;;;;;;;;;;;;;;;4925922;28;19923;-59
2023/01/12 13:38:38;;;;;;;;;;;;;;;;;;4923287;28;19923;-59
2023/01/12 13:41:04;;;;;;;;;;;;;;;;;;4922751;28;19927;-59
2023/01/12 13:43:30;;;;;;;;;;;;;;;;;;4923069;28;20407;-59
2023/01/12 13:45:56;;;;;;;;;;;;;;;;;;4925231;28;19930;-59
2023/01/12 13:48:22;;;;;;;;;;;;;;;;;;4922862;28;19922;-59
2023/01/12 13:50:48;;;;;;;;;;;;;;;;;;4926099;28;19933;-59
2023/01/12 13:53:14;;;;;;;;;;;;;;;;;;4927149;28;19930;-59
2023/01/12 13:55:40;;;;;;;;;;;;;;;;;;4925794;28;19923;-59
2023/01/12 13:58:05;;;;;;;;;;;;;;;;;;4927132;28;19923;-59
2023/01/12 14:00:32;;;;;;;;;;;;;;;;;;4924343;28;20000;-59
2023/01/12 14:02:58;;;;;;;;;;;;;;;;;;4926790;28;19922;-59
2023/01/12 14:05:25;;;;;;;;;;;;;;;;;;4925378;28;19930;-59
2023/01/12 14:07:51;;;;;;;;;;;;;;;;;;4927097;28;19923;-59
2023/01/12 14:10:17;;;;;;;;;;;;;;;;;;4927357;28;20212;-59
2023/01/12 14:12:43;;;;;;;;;;;;;;;;;;4926615;28;20149;-58
2023/01/12 14:17:56;;;;;;;;;;;;;;;;;;4926776;28;20021;-56
2023/01/12 14:20:22;;;;;;;;;;;;;;;;;;4924953;28;20060;-58
2023/01/12 14:22:48;;;;;;;;;;;;;;;;;;4926735;28;20860;-57
2023/01/12 14:25:14;;;;;;;;;;;;;;;;;;4925645;28;20425;-58
2023/01/12 14:27:40;;;;;;;;;;;;;;;;;;4927740;28;20365;-57
2023/01/12 14:30:06;;;;;;;;;;;;;;;;;;4927339;28;20429;-57
2023/01/12 14:32:32;;;;;;;;;;;;;;;;;;4926468;28;19966;-58
2023/01/12 14:34:58;;;;;;;;;;;;;;;;;;4925920;28;19923;-58
2023/01/12 14:37:24;;;;;;;;;;;;;;;;;;4926711;28;20013;-58
2023/01/12 14:39:50;;;;;;;;;;;;;;;;;;4925585;28;20025;-58
2023/01/12 14:47:45;;;;;;;;;;;;;;;;;;4926907;28;20009;-57
2023/01/12 14:50:11;;;;;;;;;;;;;;;;;;4927097;28;20601;-57
2023/01/12 14:52:37;;;;;;;;;;;;;;;;;;4926427;28;21058;-57
2023/01/12 14:55:03;;;;;;;;;;;;;;;;;;4927421;28;20495;-57
2023/01/12 14:57:29;;;;;;;;;;;;;;;;;;4924355;28;19924;-57
2023/01/12 14:59:55;;;;;;;;;;;;;;;;;;4926056;28;19927;-57
2023/01/12 15:02:21;;;;;;;;;;;;;;;;;;4926542;28;19929;-57
2023/01/12 15:04:47;;;;;;;;;;;;;;;;;;4927076;28;19923;-57
2023/01/12 15:07:13;;;;;;;;;;;;;;;;;;4927925;28;20458;-57
2023/01/12 15:09:39;;;;;;;;;;;;;;;;;;4926122;28;19934;-57
2023/01/12 15:12:05;;;;;;;;;;;;;;;;;;4927662;28;19923;-57
2023/01/12 15:14:30;;;;;;;;;;;;;;;;;;4924870;28;19923;-57
2023/01/12 15:27:55;;;;;;;;;;;;;;;;;;4923526;28;20559;-57
2023/01/12 15:30:21;;;;;;;;;;;;;;;;;;4925973;28;19927;-57
2023/01/12 15:32:47;;;;;;;;;;;;;;;;;;4925674;28;19923;-57
2023/01/12 15:35:13;;;;;;;;;;;;;;;;;;4926380;28;19929;-57
2023/01/12 15:37:39;;;;;;;;;;;;;;;;;;4925992;28;19950;-57
2023/01/12 15:40:05;;;;;;;;;;;;;;;;;;4925128;28;19934;-57
2023/01/12 15:42:31;;;;;;;;;;;;;;;;;;4923858;28;20013;-58
2023/01/12 15:44:57;;;;;;;;;;;;;;;;;;4921898;28;19923;-57
2023/01/12 15:47:23;;;;;;;;;;;;;;;;;;4922575;28;20435;-57
2023/01/12 15:49:50;;;;;;;;;;;;;;;;;;4922381;28;19930;-57
2023/01/12 15:52:16;;;;;;;;;;;;;;;;;;4922708;28;20004;-57
2023/01/12 15:54:42;;;;;;;;;;;;;;;;;;4921501;28;21158;-57
2023/01/12 15:57:07;;;;;;;;;;;;;;;;;;4921739;28;21733;-57
2023/01/12 15:59:33;;;;;;;;;;;;;;;;;;4921295;28;20017;-57
2023/01/12 16:01:59;;;;;;;;;;;;;;;;;;4922063;28;20017;-58
2023/01/12 16:04:25;;;;;;;;;;;;;;;;;;4921885;28;19930;-58
2023/01/12 16:06:51;;;;;;;;;;;;;;;;;;4921883;28;19923;-58
2023/01/12 16:09:17;;;;;;;;;;;;;;;;;;4922140;28;19927;-58
2023/01/12 16:11:46;;;;;;;;;;;;;;;;;;4921239;28;19965;-57
2023/01/12 16:14:12;;;;;;;;;;;;;;;;;;4920102;28;19922;-57
2023/01/12 16:16:38;;;;;;;;;;;;;;;;;;4921748;28;19923;-58
2023/01/12 16:19:04;;;;;;;;;;;;;;;;;;4921562;28;19950;-57
2023/01/12 16:21:30;;;;;;;;;;;;;;;;;;4921160;28;19996;-57
2023/01/12 16:23:56;;;;;;;;;;;;;;;;;;4921502;28;19958;-57
2023/01/12 16:26:22;;;;;;;;;;;;;;;;;;4922693;28;19923;-57
2023/01/12 16:28:48;;;;;;;;;;;;;;;;;;4922152;28;19927;-57
2023/01/12 16:31:14;;;;;;;;;;;;;;;;;;4920601;28;19996;-57
2023/01/12 16:33:40;;;;;;;;;;;;;;;;;;4921464;28;19973;-58
2023/01/12 16:36:06;;;;;;;;;;;;;;;;;;4922031;28;20361;-57
2023/01/12 16:38:32;;;;;;;;;;;;;;;;;;4928322;28;19927;-57
2023/01/12 16:40:58;;;;;;;;;;;;;;;;;;4921674;28;20025;-57
2023/01/12 16:43:24;;;;;;;;;;;;;;;;;;4921750;28;20061;-58
2023/01/12 16:45:50;;;;;;;;;;;;;;;;;;4921046;28;20034;-58
2023/01/12 16:48:16;;;;;;;;;;;;;;;;;;4921544;28;19926;-57
2023/01/12 16:50:42;;;;;;;;;;;;;;;;;;4921249;28;19993;-58
2023/01/12 16:53:08;;;;;;;;;;;;;;;;;;4921225;28;19927;-58
2023/01/12 16:55:34;;;;;;;;;;;;;;;;;;4921411;28;20871;-58
2023/01/12 16:58:00;;;;;;;;;;;;;;;;;;4922881;28;19927;-58
2023/01/12 17:00:26;;;;;;;;;;;;;;;;;;4921115;28;19923;-58
2023/01/12 17:02:52;;;;;;;;;;;;;;;;;;4922248;28;19930;-58
2023/01/12 17:05:19;;;;;;;;;;;;;;;;;;4921483;28;19929;-58
2023/01/12 17:07:45;;;;;;;;;;;;;;;;;;4921332;28;20483;-57
2023/01/12 17:10:11;;;;;;;;;;;;;;;;;;4921391;28;20036;-58
2023/01/12 17:12:37;;;;;;;;;;;;;;;;;;4921752;28;20033;-58
2023/01/12 17:15:02;;;;;;;;;;;;;;;;;;4920189;28;19938;-58
2023/01/12 17:17:29;;;;;;;;;;;;;;;;;;4921243;28;20293;-58
2023/01/12 17:19:55;;;;;;;;;;;;;;;;;;4921605;28;19923;-57
2023/01/12 17:22:20;;;;;;;;;;;;;;;;;;4922336;28;19934;-58
2023/01/12 17:24:46;;;;;;;;;;;;;;;;;;4922889;28;19928;-57
2023/01/12 17:27:12;;;;;;;;;;;;;;;;;;4924509;28;20485;-57
2023/01/12 17:29:38;;;;;;;;;;;;;;;;;;4922362;28;20130;-57